sensor_id;sensor_type;location;lat;lon;timestamp;pressure;altitude;pressure_sealevel;temperature;humidity
68712;BME280;55690;51.566;19.198;2022-11-20T00:00:35;101474.98;;;-3.34;90.90
68712;BME280;55690;51.566;19.198;2022-11-20T00:04:42;101471.49;;;-3.44;90.67
68712;BME280;55690;51.566;19.198;2022-11-20T00:12:47;101467.91;;;-3.37;91.01
68712;BME280;55690;51.566;19.198;2022-11-20T00:16:49;101461.68;;;-3.28;90.84
68712;BME280;55690;51.566;19.198;2022-11-20T00:20:50;101459.00;;;-3.25;91.05
68712;BME280;55690;51.566;19.198;2022-11-20T00:24:52;101456.34;;;-3.23;91.23
68712;BME280;55690;51.566;19.198;2022-11-20T00:28:55;101458.96;;;-3.17;90.61
68712;BME280;55690;51.566;19.198;2022-11-20T00:32:57;101458.04;;;-3.12;90.92
68712;BME280;55690;51.566;19.198;2022-11-20T00:36:59;101467.77;;;-3.11;90.81
68712;BME280;55690;51.566;19.198;2022-11-20T00:41:03;101468.66;;;-3.10;90.90
68712;BME280;55690;51.566;19.198;2022-11-20T00:45:05;101454.52;;;-3.14;90.72
68712;BME280;55690;51.566;19.198;2022-11-20T00:49:08;101454.60;;;-3.30;90.68
68712;BME280;55690;51.566;19.198;2022-11-20T00:53:09;101446.61;;;-3.26;90.93
68712;BME280;55690;51.566;19.198;2022-11-20T00:57:11;101438.73;;;-3.41;91.20
68712;BME280;55690;51.566;19.198;2022-11-20T01:01:19;101444.03;;;-3.38;91.20
68712;BME280;55690;51.566;19.198;2022-11-20T01:05:21;101439.56;;;-3.31;91.00
68712;BME280;55690;51.566;19.198;2022-11-20T01:09:22;101450.13;;;-3.22;91.34
68712;BME280;55690;51.566;19.198;2022-11-20T01:13:29;101439.57;;;-3.33;90.88
68712;BME280;55690;51.566;19.198;2022-11-20T01:17:39;101452.85;;;-3.33;90.88
68712;BME280;55690;51.566;19.198;2022-11-20T01:21:42;101452.78;;;-3.21;91.77
68712;BME280;55690;51.566;19.198;2022-11-20T01:25:44;101444.89;;;-3.35;91.24
68712;BME280;55690;51.566;19.198;2022-11-20T01:29:46;101444.03;;;-3.38;91.86
68712;BME280;55690;51.566;19.198;2022-11-20T01:33:51;101444.88;;;-3.33;91.79
68712;BME280;55690;51.566;19.198;2022-11-20T01:37:52;101451.03;;;-3.25;92.20
68712;BME280;55690;51.566;19.198;2022-11-20T01:41:57;101444.91;;;-3.38;91.45
68712;BME280;55690;51.566;19.198;2022-11-20T01:46:16;101453.79;;;-3.43;91.38
68712;BME280;55690;51.566;19.198;2022-11-20T01:50:25;101451.91;;;-3.24;92.38
68712;BME280;55690;51.566;19.198;2022-11-20T01:54:36;101448.42;;;-3.32;91.45
68712;BME280;55690;51.566;19.198;2022-11-20T01:58:46;101443.07;;;-3.25;91.08
68712;BME280;55690;51.566;19.198;2022-11-20T02:02:54;101450.05;;;-3.10;91.42
68712;BME280;55690;51.566;19.198;2022-11-20T02:07:02;101433.32;;;-3.24;91.04
68712;BME280;55690;51.566;19.198;2022-11-20T02:11:06;101441.23;;;-3.14;91.59
68712;BME280;55690;51.566;19.198;2022-11-20T02:15:08;101433.26;;;-3.14;91.92
68712;BME280;55690;51.566;19.198;2022-11-20T02:27:38;101428.82;;;-3.12;92.03
68712;BME280;55690;51.566;19.198;2022-11-20T02:31:45;101430.56;;;-3.08;91.63
68712;BME280;55690;51.566;19.198;2022-11-20T02:35:47;101422.67;;;-3.20;91.33
68712;BME280;55690;51.566;19.198;2022-11-20T02:39:51;101423.54;;;-3.16;91.92
68712;BME280;55690;51.566;19.198;2022-11-20T02:43:52;101414.72;;;-3.21;91.79
68712;BME280;55690;51.566;19.198;2022-11-20T02:47:54;101413.01;;;-3.31;91.91
68712;BME280;55690;51.566;19.198;2022-11-20T02:51:56;101415.72;;;-3.42;92.17
68712;BME280;55690;51.566;19.198;2022-11-20T02:55:57;101415.70;;;-3.39;92.91
68712;BME280;55690;51.566;19.198;2022-11-20T02:59:59;101416.73;;;-3.57;92.93
68712;BME280;55690;51.566;19.198;2022-11-20T03:04:01;101426.47;;;-3.60;92.84
68712;BME280;55690;51.566;19.198;2022-11-20T03:08:07;101415.03;;;-3.76;93.76
68712;BME280;55690;51.566;19.198;2022-11-20T03:12:13;101412.41;;;-3.84;94.15
68712;BME280;55690;51.566;19.198;2022-11-20T03:16:21;101420.45;;;-3.93;94.37
68712;BME280;55690;51.566;19.198;2022-11-20T03:20:25;101422.26;;;-4.07;94.74
68712;BME280;55690;51.566;19.198;2022-11-20T03:24:32;101421.38;;;-4.09;95.09
68712;BME280;55690;51.566;19.198;2022-11-20T03:28:38;101420.48;;;-4.04;95.03
68712;BME280;55690;51.566;19.198;2022-11-20T03:32:44;101407.22;;;-4.04;94.66
68712;BME280;55690;51.566;19.198;2022-11-20T03:36:50;101416.05;;;-4.03;94.72
68712;BME280;55690;51.566;19.198;2022-11-20T03:41:07;101413.44;;;-4.14;95.45
68712;BME280;55690;51.566;19.198;2022-11-20T03:45:09;101418.70;;;-4.02;94.37
68712;BME280;55690;51.566;19.198;2022-11-20T03:49:11;101412.52;;;-4.05;94.45
68712;BME280;55690;51.566;19.198;2022-11-20T03:53:16;101418.70;;;-4.02;94.22
68712;BME280;55690;51.566;19.198;2022-11-20T03:57:21;101420.48;;;-4.04;94.10
68712;BME280;55690;51.566;19.198;2022-11-20T04:01:31;101417.84;;;-4.10;94.16
68712;BME280;55690;51.566;19.198;2022-11-20T04:05:34;101417.89;;;-4.28;94.44
68712;BME280;55690;51.566;19.198;2022-11-20T04:09:40;101423.26;;;-4.51;94.59
68712;BME280;55690;51.566;19.198;2022-11-20T04:13:48;101425.92;;;-4.61;94.96
68712;BME280;55690;51.566;19.198;2022-11-20T04:17:53;101422.39;;;-4.60;95.13
68712;BME280;55690;51.566;19.198;2022-11-20T04:21:59;101424.15;;;-4.61;95.09
68712;BME280;55690;51.566;19.198;2022-11-20T04:26:09;101421.51;;;-4.67;95.63
68712;BME280;55690;51.566;19.198;2022-11-20T04:30:12;101422.39;;;-4.73;96.03
68712;BME280;55690;51.566;19.198;2022-11-20T04:34:17;101423.31;;;-4.86;95.91
68712;BME280;55690;51.566;19.198;2022-11-20T04:38:23;101422.42;;;-5.20;96.17
68712;BME280;55690;51.566;19.198;2022-11-20T04:42:29;101430.34;;;-5.32;97.46
68712;BME280;55690;51.566;19.198;2022-11-20T04:46:42;101428.55;;;-5.41;99.16
68712;BME280;55690;51.566;19.198;2022-11-20T04:50:44;101424.15;;;-5.37;99.90
68712;BME280;55690;51.566;19.198;2022-11-20T04:54:48;101426.80;;;-5.40;100.00
68712;BME280;55690;51.566;19.198;2022-11-20T04:58:55;101414.43;;;-5.44;100.00
68712;BME280;55690;51.566;19.198;2022-11-20T05:03:00;101417.09;;;-5.43;100.00
68712;BME280;55690;51.566;19.198;2022-11-20T05:07:07;101411.80;;;-5.38;100.00
68712;BME280;55690;51.566;19.198;2022-11-20T05:11:19;101410.90;;;-5.48;100.00
68712;BME280;55690;51.566;19.198;2022-11-20T05:15:21;101402.97;;;-5.43;100.00
68712;BME280;55690;51.566;19.198;2022-11-20T05:19:26;101401.21;;;-5.35;100.00
68712;BME280;55690;51.566;19.198;2022-11-20T05:23:32;101411.81;;;-5.29;100.00
68712;BME280;55690;51.566;19.198;2022-11-20T05:27:43;101415.34;;;-5.13;100.00
68712;BME280;55690;51.566;19.198;2022-11-20T05:31:50;101402.98;;;-5.08;99.76
68712;BME280;55690;51.566;19.198;2022-11-20T05:35:58;101396.81;;;-5.10;99.58
68712;BME280;55690;51.566;19.198;2022-11-20T05:40:01;101393.28;;;-5.11;99.85
68712;BME280;55690;51.566;19.198;2022-11-20T05:44:10;101402.98;;;-5.08;99.47
68712;BME280;55690;51.566;19.198;2022-11-20T05:48:14;101395.95;;;-5.20;99.70
68712;BME280;55690;51.566;19.198;2022-11-20T05:52:20;101402.98;;;-5.16;100.00
68712;BME280;55690;51.566;19.198;2022-11-20T05:56:26;101410.04;;;-5.15;99.78
68712;BME280;55690;51.566;19.198;2022-11-20T06:00:33;101403.89;;;-5.20;99.48
68712;BME280;55690;51.566;19.198;2022-11-20T06:04:38;101400.33;;;-5.37;99.64
68712;BME280;55690;51.566;19.198;2022-11-20T06:08:45;101398.52;;;-5.53;100.00
68712;BME280;55690;51.566;19.198;2022-11-20T06:12:51;101410.89;;;-5.49;100.00
68712;BME280;55690;51.566;19.198;2022-11-20T06:16:57;101411.77;;;-5.47;100.00
68712;BME280;55690;51.566;19.198;2022-11-20T06:21:06;101397.64;;;-5.54;100.00
68712;BME280;55690;51.566;19.198;2022-11-20T06:25:10;101399.43;;;-5.47;100.00
68712;BME280;55690;51.566;19.198;2022-11-20T06:29:16;101395.87;;;-5.59;100.00
68712;BME280;55690;51.566;19.198;2022-11-20T06:33:22;101396.75;;;-5.60;100.00
68712;BME280;55690;51.566;19.198;2022-11-20T06:37:28;101401.18;;;-5.55;100.00
68712;BME280;55690;51.566;19.198;2022-11-20T06:41:34;101398.55;;;-5.41;100.00
68712;BME280;55690;51.566;19.198;2022-11-20T06:45:41;101385.35;;;-5.23;100.00
68712;BME280;55690;51.566;19.198;2022-11-20T06:49:46;101387.09;;;-5.16;100.00
68712;BME280;55690;51.566;19.198;2022-11-20T06:53:53;101380.92;;;-5.15;100.00
68712;BME280;55690;51.566;19.198;2022-11-20T06:57:59;101363.30;;;-5.25;100.00
68712;BME280;55690;51.566;19.198;2022-11-20T07:02:05;101375.63;;;-4.98;100.00
68712;BME280;55690;51.566;19.198;2022-11-20T07:06:11;101380.93;;;-4.80;100.00
68712;BME280;55690;51.566;19.198;2022-11-20T07:10:17;101365.84;;;-4.56;100.00
68712;BME280;55690;51.566;19.198;2022-11-20T07:14:24;101358.72;;;-4.34;100.00
68712;BME280;55690;51.566;19.198;2022-11-20T07:18:30;101360.20;;;-3.76;98.97
68712;BME280;55690;51.566;19.198;2022-11-20T07:22:36;101355.38;;;-3.19;97.49
68712;BME280;55690;51.566;19.198;2022-11-20T07:26:46;101349.00;;;-2.99;96.31
68712;BME280;55690;51.566;19.198;2022-11-20T07:30:53;101349.66;;;-2.75;96.02
68712;BME280;55690;51.566;19.198;2022-11-20T07:34:55;101338.47;;;-2.24;95.17
68712;BME280;55690;51.566;19.198;2022-11-20T07:39:01;101333.90;;;-2.16;94.25
68712;BME280;55690;51.566;19.198;2022-11-20T07:43:07;101321.39;;;-2.08;93.25
68712;BME280;55690;51.566;19.198;2022-11-20T07:47:13;101325.02;;;-2.15;93.03
68712;BME280;55690;51.566;19.198;2022-11-20T07:51:20;101329.55;;;-2.20;93.42
68712;BME280;55690;51.566;19.198;2022-11-20T07:55:26;101320.05;;;-2.43;93.78
68712;BME280;55690;51.566;19.198;2022-11-20T08:03:40;101304.47;;;-2.03;93.09
68712;BME280;55690;51.566;19.198;2022-11-20T08:07:45;101304.34;;;-1.92;93.14
68712;BME280;55690;51.566;19.198;2022-11-20T08:11:50;101301.44;;;-1.75;92.82
68712;BME280;55690;51.566;19.198;2022-11-20T08:16:04;101288.88;;;-1.69;92.31
68712;BME280;55690;51.566;19.198;2022-11-20T08:20:07;101296.96;;;-1.19;92.19
68712;BME280;55690;51.566;19.198;2022-11-20T08:24:11;101289.92;;;-1.23;91.17
68712;BME280;55690;51.566;19.198;2022-11-20T08:28:15;101286.45;;;-1.28;90.79
68712;BME280;55690;51.566;19.198;2022-11-20T08:32:21;101284.29;;;-1.05;91.23
68712;BME280;55690;51.566;19.198;2022-11-20T08:36:28;101272.55;;;-1.46;91.66
68712;BME280;55690;51.566;19.198;2022-11-20T08:40:34;101279.94;;;-1.64;92.49
68712;BME280;55690;51.566;19.198;2022-11-20T08:45:26;101268.70;;;-1.82;92.23
68712;BME280;55690;51.566;19.198;2022-11-20T08:53:39;101272.72;;;-1.56;92.90
68712;BME280;55690;51.566;19.198;2022-11-20T08:57:45;101270.39;;;-1.24;92.11
68712;BME280;55690;51.566;19.198;2022-11-20T09:01:51;101264.44;;;-1.38;90.74
68712;BME280;55690;51.566;19.198;2022-11-20T09:06:02;101260.56;;;-1.20;91.11
68712;BME280;55690;51.566;19.198;2022-11-20T09:10:09;101211.91;;;-1.30;91.27
68712;BME280;55690;51.566;19.198;2022-11-20T09:14:12;101243.35;;;-1.01;89.50
68712;BME280;55690;51.566;19.198;2022-11-20T09:18:16;101249.19;;;-0.82;90.14
68712;BME280;55690;51.566;19.198;2022-11-20T09:22:23;101239.66;;;-0.94;89.54
68712;BME280;55690;51.566;19.198;2022-11-20T09:26:28;101242.92;;;-0.80;89.86
68712;BME280;55690;51.566;19.198;2022-11-20T09:34:41;101253.90;;;-0.95;88.22
68712;BME280;55690;51.566;19.198;2022-11-20T09:38:47;101250.95;;;-0.81;88.50
68712;BME280;55690;51.566;19.198;2022-11-20T09:43:07;101243.85;;;-0.82;87.77
68712;BME280;55690;51.566;19.198;2022-11-20T09:47:23;101239.87;;;-0.60;89.30
68712;BME280;55690;51.566;19.198;2022-11-20T09:55:41;101233.41;;;-0.48;89.01
68712;BME280;55690;51.566;19.198;2022-11-20T09:59:51;101222.11;;;-0.61;87.27
68712;BME280;55690;51.566;19.198;2022-11-20T10:21:17;101219.62;;;-0.28;86.82
68712;BME280;55690;51.566;19.198;2022-11-20T10:25:34;101207.55;;;-0.45;84.83
68712;BME280;55690;51.566;19.198;2022-11-20T10:29:39;101206.48;;;-0.38;85.89
68712;BME280;55690;51.566;19.198;2022-11-20T10:33:44;101195.27;;;-0.13;86.30
68712;BME280;55690;51.566;19.198;2022-11-20T10:37:53;101202.90;;;0.02;86.15
68712;BME280;55690;51.566;19.198;2022-11-20T10:41:57;101192.22;;;0.02;84.19
68712;BME280;55690;51.566;19.198;2022-11-20T10:50:19;101186.23;;;0.29;85.10
68712;BME280;55690;51.566;19.198;2022-11-20T10:58:45;101191.31;;;0.40;84.15
68712;BME280;55690;51.566;19.198;2022-11-20T11:07:16;101185.63;;;0.52;82.69
68712;BME280;55690;51.566;19.198;2022-11-20T11:15:36;101162.23;;;0.62;81.34
68712;BME280;55690;51.566;19.198;2022-11-20T11:23:42;101155.95;;;0.95;81.93
68712;BME280;55690;51.566;19.198;2022-11-20T11:27:49;101144.42;;;0.93;80.52
68712;BME280;55690;51.566;19.198;2022-11-20T11:31:51;101145.00;;;1.05;80.91
68712;BME280;55690;51.566;19.198;2022-11-20T11:36:02;101147.34;;;0.86;78.26
68712;BME280;55690;51.566;19.198;2022-11-20T11:40:08;101150.52;;;0.98;79.52
68712;BME280;55690;51.566;19.198;2022-11-20T11:48:39;101141.59;;;0.99;78.85
68712;BME280;55690;51.566;19.198;2022-11-20T11:52:50;101139.30;;;1.17;79.23
68712;BME280;55690;51.566;19.198;2022-11-20T12:05:23;101107.47;;;1.08;76.69
68712;BME280;55690;51.566;19.198;2022-11-20T12:17:58;101099.32;;;1.12;76.25
68712;BME280;55690;51.566;19.198;2022-11-20T12:26:40;101095.63;;;1.16;74.82
68712;BME280;55690;51.566;19.198;2022-11-20T12:30:34;101100.90;;;1.19;75.94
68712;BME280;55690;51.566;19.198;2022-11-20T13:00:22;101065.52;;;1.10;75.44
68712;BME280;55690;51.566;19.198;2022-11-20T13:08:53;101055.78;;;0.78;74.37
68712;BME280;55690;51.566;19.198;2022-11-20T13:21:36;101044.08;;;0.82;76.04
68712;BME280;55690;51.566;19.198;2022-11-20T13:25:40;101045.52;;;0.62;77.30
68712;BME280;55690;51.566;19.198;2022-11-20T13:29:46;101030.54;;;0.57;77.60
68712;BME280;55690;51.566;19.198;2022-11-20T13:33:53;101030.45;;;0.60;77.49
68712;BME280;55690;51.566;19.198;2022-11-20T13:42:20;101030.23;;;0.37;78.35
68712;BME280;55690;51.566;19.198;2022-11-20T13:46:37;101027.65;;;0.33;78.36
68712;BME280;55690;51.566;19.198;2022-11-20T13:55:07;101025.27;;;0.23;80.40
68712;BME280;55690;51.566;19.198;2022-11-20T14:03:32;101032.80;;;0.07;80.75
68712;BME280;55690;51.566;19.198;2022-11-20T14:07:41;101028.55;;;0.00;81.07
68712;BME280;55690;51.566;19.198;2022-11-20T14:11:47;101023.30;;;-0.03;80.93
68712;BME280;55690;51.566;19.198;2022-11-20T14:15:58;101025.21;;;-0.08;81.26
68712;BME280;55690;51.566;19.198;2022-11-20T14:20:11;101010.26;;;-0.15;82.23
68712;BME280;55690;51.566;19.198;2022-11-20T14:24:22;101006.98;;;-0.26;82.15
68712;BME280;55690;51.566;19.198;2022-11-20T14:32:30;101004.48;;;-0.32;82.65
68712;BME280;55690;51.566;19.198;2022-11-20T14:36:33;101006.34;;;-0.36;82.68
68712;BME280;55690;51.566;19.198;2022-11-20T14:40:35;101014.48;;;-0.42;82.50
68712;BME280;55690;51.566;19.198;2022-11-20T14:44:39;101008.27;;;-0.43;83.12
68712;BME280;55690;51.566;19.198;2022-11-20T14:48:49;101012.99;;;-0.52;83.34
68712;BME280;55690;51.566;19.198;2022-11-20T14:52:59;101002.57;;;-0.63;83.85
68712;BME280;55690;51.566;19.198;2022-11-20T14:57:03;101005.38;;;-0.69;84.15
68712;BME280;55690;51.566;19.198;2022-11-20T15:01:07;101002.11;;;-0.82;84.69
68712;BME280;55690;51.566;19.198;2022-11-20T15:05:14;100984.02;;;-1.06;84.91
68712;BME280;55690;51.566;19.198;2022-11-20T15:09:18;100991.09;;;-1.04;85.44
68712;BME280;55690;51.566;19.198;2022-11-20T15:17:37;100971.85;;;-1.18;85.76
68712;BME280;55690;51.566;19.198;2022-11-20T15:25:48;100975.82;;;-1.36;85.78
68712;BME280;55690;51.566;19.198;2022-11-20T15:33:54;100985.03;;;-1.52;86.73
68712;BME280;55690;51.566;19.198;2022-11-20T15:37:56;100983.38;;;-1.57;86.92
68712;BME280;55690;51.566;19.198;2022-11-20T15:41:58;100975.57;;;-1.67;86.97
68712;BME280;55690;51.566;19.198;2022-11-20T15:46:06;100971.33;;;-1.75;87.18
68712;BME280;55690;51.566;19.198;2022-11-20T15:50:15;100960.95;;;-1.89;87.56
68712;BME280;55690;51.566;19.198;2022-11-20T15:58:23;100971.66;;;-1.92;87.96
68712;BME280;55690;51.566;19.198;2022-11-20T16:02:28;100970.09;;;-2.04;87.90
68712;BME280;55690;51.566;19.198;2022-11-20T16:06:30;100969.27;;;-2.07;88.19
68712;BME280;55690;51.566;19.198;2022-11-20T16:10:36;100972.22;;;-2.21;87.94
68712;BME280;55690;51.566;19.198;2022-11-20T16:14:37;100977.64;;;-2.27;89.46
68712;BME280;55690;51.566;19.198;2022-11-20T16:18:50;100983.12;;;-2.36;90.56
68712;BME280;55690;51.566;19.198;2022-11-20T16:22:52;100985.90;;;-2.44;88.93
68712;BME280;55690;51.566;19.198;2022-11-20T16:26:55;100985.95;;;-2.47;89.44
68712;BME280;55690;51.566;19.198;2022-11-20T16:30:57;100988.71;;;-2.53;90.13
68712;BME280;55690;51.566;19.198;2022-11-20T16:35:07;100985.27;;;-2.59;90.90
68712;BME280;55690;51.566;19.198;2022-11-20T16:39:12;100980.91;;;-2.62;89.94
68712;BME280;55690;51.566;19.198;2022-11-20T16:43:16;100980.08;;;-2.65;90.27
68712;BME280;55690;51.566;19.198;2022-11-20T16:47:21;100972.20;;;-2.72;91.12
68712;BME280;55690;51.566;19.198;2022-11-20T16:51:33;100972.30;;;-2.78;91.56
68712;BME280;55690;51.566;19.198;2022-11-20T16:55:36;100963.56;;;-2.86;90.99
68712;BME280;55690;51.566;19.198;2022-11-20T16:59:38;100970.98;;;-3.06;92.10
68712;BME280;55690;51.566;19.198;2022-11-20T17:07:52;100968.39;;;-3.11;92.82
68712;BME280;55690;51.566;19.198;2022-11-20T17:11:54;100958.63;;;-3.09;91.71
68712;BME280;55690;51.566;19.198;2022-11-20T17:16:00;100963.10;;;-3.12;92.19
68712;BME280;55690;51.566;19.198;2022-11-20T17:20:03;100968.49;;;-3.18;91.97
68712;BME280;55690;51.566;19.198;2022-11-20T17:24:08;100963.19;;;-3.18;92.10
68712;BME280;55690;51.566;19.198;2022-11-20T17:28:11;100958.00;;;-3.27;93.59
68712;BME280;55690;51.566;19.198;2022-11-20T17:32:13;100948.40;;;-3.38;93.49
68712;BME280;55690;51.566;19.198;2022-11-20T17:36:16;100951.09;;;-3.41;93.32
68712;BME280;55690;51.566;19.198;2022-11-20T17:40:18;100953.02;;;-3.50;93.53
68712;BME280;55690;51.566;19.198;2022-11-20T17:44:20;100943.41;;;-3.60;94.20
68712;BME280;55690;51.566;19.198;2022-11-20T17:48:22;100940.80;;;-3.63;93.52
68712;BME280;55690;51.566;19.198;2022-11-20T17:52:25;100937.31;;;-3.67;93.22
68712;BME280;55690;51.566;19.198;2022-11-20T17:56:34;100941.81;;;-3.74;94.35
68712;BME280;55690;51.566;19.198;2022-11-20T18:00:48;100934.69;;;-3.70;94.18
68712;BME280;55690;51.566;19.198;2022-11-20T18:04:50;100932.11;;;-3.76;95.00
68712;BME280;55690;51.566;19.198;2022-11-20T18:08:52;100929.34;;;-3.65;95.11
68712;BME280;55690;51.566;19.198;2022-11-20T18:12:54;100925.67;;;-3.57;95.46
68712;BME280;55690;51.566;19.198;2022-11-20T18:21:10;100922.83;;;-3.45;96.18
68712;BME280;55690;51.566;19.198;2022-11-20T18:29:16;100870.91;;;-3.62;97.27
68712;BME280;55690;51.566;19.198;2022-11-20T18:33:18;100899.81;;;-3.44;97.18
68712;BME280;55690;51.566;19.198;2022-11-20T18:37:23;100912.84;;;-3.26;96.89
68712;BME280;55690;51.566;19.198;2022-11-20T18:49:48;100916.84;;;-3.01;97.37
68712;BME280;55690;51.566;19.198;2022-11-20T18:53:54;100908.71;;;-2.90;97.87
68712;BME280;55690;51.566;19.198;2022-11-20T18:57:57;100905.18;;;-2.90;98.10
68712;BME280;55690;51.566;19.198;2022-11-20T19:02:04;100906.88;;;-2.86;98.44
68712;BME280;55690;51.566;19.198;2022-11-20T19:06:12;100906.84;;;-2.83;99.17
68712;BME280;55690;51.566;19.198;2022-11-20T19:10:20;100908.62;;;-2.84;99.02
68712;BME280;55690;51.566;19.198;2022-11-20T19:18:31;100914.71;;;-2.77;99.36
68712;BME280;55690;51.566;19.198;2022-11-20T19:22:33;100912.77;;;-2.67;99.18
68712;BME280;55690;51.566;19.198;2022-11-20T19:26:36;100918.98;;;-2.69;99.39
68712;BME280;55690;51.566;19.198;2022-11-20T19:30:38;100907.52;;;-2.71;98.77
68712;BME280;55690;51.566;19.198;2022-11-20T19:34:41;100906.68;;;-2.74;99.52
68712;BME280;55690;51.566;19.198;2022-11-20T19:38:46;100905.04;;;-2.81;99.01
68712;BME280;55690;51.566;19.198;2022-11-20T19:42:49;100904.20;;;-2.85;99.90
68712;BME280;55690;51.566;19.198;2022-11-20T19:46:54;100906.88;;;-2.86;99.77
68712;BME280;55690;51.566;19.198;2022-11-20T19:55:11;100913.22;;;-2.95;100.00
68712;BME280;55690;51.566;19.198;2022-11-20T19:59:13;100915.92;;;-2.98;100.00
68712;BME280;55690;51.566;19.198;2022-11-20T20:03:15;100921.21;;;-2.96;100.00
68712;BME280;55690;51.566;19.198;2022-11-20T20:07:16;100924.90;;;-3.04;100.00
68712;BME280;55690;51.566;19.198;2022-11-20T20:11:21;100916.95;;;-3.05;100.00
68712;BME280;55690;51.566;19.198;2022-11-20T20:15:23;100923.14;;;-3.05;100.00
68712;BME280;55690;51.566;19.198;2022-11-20T20:27:37;100932.87;;;-3.04;100.00
68712;BME280;55690;51.566;19.198;2022-11-20T20:31:39;100925.80;;;-3.05;100.00
68712;BME280;55690;51.566;19.198;2022-11-20T20:35:41;100933.81;;;-3.08;100.00
68712;BME280;55690;51.566;19.198;2022-11-20T20:39:47;100925.94;;;-3.14;100.00
68712;BME280;55690;51.566;19.198;2022-11-20T20:43:49;100915.36;;;-3.17;100.00
68712;BME280;55690;51.566;19.198;2022-11-20T20:48:04;100921.67;;;-3.25;100.00
68712;BME280;55690;51.566;19.198;2022-11-20T20:52:10;100921.80;;;-3.35;100.00
68712;BME280;55690;51.566;19.198;2022-11-20T20:56:12;100914.82;;;-3.42;100.00
68712;BME280;55690;51.566;19.198;2022-11-20T21:00:14;100905.15;;;-3.46;100.00
68712;BME280;55690;51.566;19.198;2022-11-20T21:04:16;100898.20;;;-3.53;100.00
68712;BME280;55690;51.566;19.198;2022-11-20T21:08:18;100899.15;;;-3.58;100.00
68712;BME280;55690;51.566;19.198;2022-11-20T21:16:28;100910.01;;;-3.77;100.00
68712;BME280;55690;51.566;19.198;2022-11-20T21:20:40;100901.32;;;-3.89;100.00
68712;BME280;55690;51.566;19.198;2022-11-20T21:24:53;100906.69;;;-3.92;100.00
68712;BME280;55690;51.566;19.198;2022-11-20T21:28:56;100915.59;;;-3.96;100.00
68712;BME280;55690;51.566;19.198;2022-11-20T21:32:58;100921.00;;;-4.07;100.00
68712;BME280;55690;51.566;19.198;2022-11-20T21:37:00;100919.27;;;-4.10;100.00
68712;BME280;55690;51.566;19.198;2022-11-20T21:41:03;100937.82;;;-4.08;100.00
68712;BME280;55690;51.566;19.198;2022-11-20T21:45:06;100933.53;;;-4.21;100.00
68712;BME280;55690;51.566;19.198;2022-11-20T21:49:08;100929.05;;;-4.15;100.00
68712;BME280;55690;51.566;19.198;2022-11-20T21:53:10;100922.81;;;-4.11;100.00
68712;BME280;55690;51.566;19.198;2022-11-20T21:57:12;100929.92;;;-4.14;100.00
68712;BME280;55690;51.566;19.198;2022-11-20T22:01:19;100931.73;;;-4.18;100.00
68712;BME280;55690;51.566;19.198;2022-11-20T22:05:21;100934.46;;;-4.25;100.00
68712;BME280;55690;51.566;19.198;2022-11-20T22:09:23;100944.23;;;-4.30;100.00
68712;BME280;55690;51.566;19.198;2022-11-20T22:13:29;100951.27;;;-4.28;100.00
68712;BME280;55690;51.566;19.198;2022-11-20T22:17:42;100950.38;;;-4.27;100.00
68712;BME280;55690;51.566;19.198;2022-11-20T22:21:55;100953.13;;;-4.34;100.00
68712;BME280;55690;51.566;19.198;2022-11-20T22:26:09;100965.55;;;-4.40;100.00
68712;BME280;55690;51.566;19.198;2022-11-20T22:34:18;100967.39;;;-4.48;100.00
68712;BME280;55690;51.566;19.198;2022-11-20T22:38:24;100963.83;;;-4.44;100.00
68712;BME280;55690;51.566;19.198;2022-11-20T22:46:35;100961.21;;;-4.48;100.00
68712;BME280;55690;51.566;19.198;2022-11-20T22:50:37;100955.91;;;-4.48;100.00
68712;BME280;55690;51.566;19.198;2022-11-20T22:54:38;100955.98;;;-4.56;100.00
68712;BME280;55690;51.566;19.198;2022-11-20T22:58:41;100962.15;;;-4.54;100.00
68712;BME280;55690;51.566;19.198;2022-11-20T23:02:44;100970.08;;;-4.52;100.00
68712;BME280;55690;51.566;19.198;2022-11-20T23:06:46;100967.47;;;-4.57;100.00
68712;BME280;55690;51.566;19.198;2022-11-20T23:10:48;100955.12;;;-4.59;100.00
68712;BME280;55690;51.566;19.198;2022-11-20T23:14:49;100964.86;;;-4.61;100.00
68712;BME280;55690;51.566;19.198;2022-11-20T23:18:58;100955.13;;;-4.61;100.00
68712;BME280;55690;51.566;19.198;2022-11-20T23:23:00;100956.07;;;-4.66;100.00
68712;BME280;55690;51.566;19.198;2022-11-20T23:27:01;100956.12;;;-4.73;100.00
68712;BME280;55690;51.566;19.198;2022-11-20T23:31:03;100959.59;;;-4.66;100.00
68712;BME280;55690;51.566;19.198;2022-11-20T23:35:06;100954.34;;;-4.72;100.00
68712;BME280;55690;51.566;19.198;2022-11-20T23:39:07;100952.68;;;-4.81;100.00
68712;BME280;55690;51.566;19.198;2022-11-20T23:43:09;100962.45;;;-4.90;100.00
68712;BME280;55690;51.566;19.198;2022-11-20T23:47:17;100966.03;;;-4.97;100.00
68712;BME280;55690;51.566;19.198;2022-11-20T23:51:19;100959.02;;;-5.03;100.00
68712;BME280;55690;51.566;19.198;2022-11-20T23:55:20;100969.64;;;-5.09;100.00
68712;BME280;55690;51.566;19.198;2022-11-20T23:59:22;100967.04;;;-5.17;100.00
